Terminal Aerodrome Forecast
Issued by NWS Atlanta, GA

Home | Current Version | Previous Version | Text Only | Print | Product List | Glossary On
Versions: 1 2 3 4 5 6 7 8 9 10 11 12 13 14 15
969
FTUS42 KFFC 141945 AAA
TAFCSG
TAF AMD
KCSG 141945Z 1420/1518 26005KT P6SM SCT250
     FM150200 00000KT P6SM SCT250
     FM150900 00000KT P6SM BKN250
     FM151500 33005KT P6SM BKN200=

USA.gov is the U.S. government's official web portal to all federal, state and local government web resources and services.